createdAt,value
2019-02-09T04:01:07.502Z,7.15
2019-02-09T04:02:08.036Z,7.18
2019-02-09T04:04:08.098Z,7.23
2019-02-09T04:05:08.536Z,7.24
2019-02-09T04:06:08.442Z,7.21
2019-02-09T04:07:08.615Z,7.18
2019-02-09T04:08:08.969Z,7.23
2019-02-09T04:09:06.888Z,7.24
2019-02-09T04:10:06.928Z,7.18
2019-02-09T04:11:06.988Z,7.17
2019-02-09T04:12:07.197Z,7.20
2019-02-09T04:13:07.360Z,7.25
2019-02-09T04:14:07.492Z,7.23
2019-02-09T04:15:07.610Z,7.29
2019-02-09T04:16:07.792Z,7.20
2019-02-09T04:17:07.918Z,7.29
2019-02-09T04:18:08.124Z,7.39
2019-02-09T04:19:08.253Z,7.28
2019-02-09T04:20:08.409Z,7.31
2019-02-09T04:21:08.563Z,7.35
2019-02-09T04:22:08.766Z,7.25
2019-02-09T04:23:08.879Z,7.25
2019-02-09T04:24:09.044Z,7.25
2019-02-09T04:25:09.267Z,7.28
2019-02-09T04:26:09.325Z,7.23
2019-02-09T04:27:09.549Z,7.31
2019-02-09T04:28:09.641Z,7.32
2019-02-09T04:29:09.887Z,7.31
2019-02-09T04:30:10.552Z,7.36
2019-02-09T04:31:10.277Z,7.32
2019-02-09T04:32:10.381Z,7.25
2019-02-09T04:33:10.540Z,7.24
2019-02-09T04:34:10.721Z,7.28
2019-02-09T04:35:10.841Z,7.28
2019-02-09T04:36:11.047Z,7.24
2019-02-09T04:37:11.215Z,7.25
2019-02-09T04:38:11.311Z,7.39
2019-02-09T04:39:11.436Z,7.36
2019-02-09T04:40:11.673Z,7.40
2019-02-09T04:41:11.913Z,7.40
2019-02-09T04:42:12.038Z,7.38
2019-02-09T04:43:12.177Z,7.50
2019-02-09T04:44:12.354Z,7.42
2019-02-09T04:45:12.523Z,7.43
2019-02-09T04:46:12.618Z,7.39
2019-02-09T04:47:19.402Z,7.51
2019-02-09T04:48:12.949Z,7.47
2019-02-09T04:49:13.036Z,7.48
2019-02-09T04:50:13.221Z,7.48
2019-02-09T04:51:13.343Z,7.53
2019-02-09T04:52:13.570Z,7.47
2019-02-09T04:53:13.735Z,7.51
2019-02-09T04:54:13.811Z,7.60
2019-02-09T04:55:14.091Z,7.58
2019-02-09T04:56:14.175Z,7.58
2019-02-09T04:57:14.302Z,7.57
2019-02-09T04:58:14.478Z,7.66
2019-02-09T04:59:14.648Z,7.58
2019-02-09T05:00:14.876Z,7.69
2019-02-09T05:01:14.965Z,7.73
2019-02-09T05:02:15.185Z,7.70
2019-02-09T05:03:15.335Z,7.70
2019-02-09T05:04:15.491Z,7.56
2019-02-09T05:05:15.673Z,7.58
2019-02-09T05:06:15.765Z,7.69
2019-02-09T05:07:15.943Z,7.63
2019-02-09T05:08:16.134Z,7.66
2019-02-09T05:09:16.295Z,7.76
2019-02-09T05:10:16.458Z,7.69
2019-02-09T05:11:16.591Z,7.73
2019-02-09T05:12:16.762Z,7.72
2019-02-09T05:13:16.884Z,7.70
2019-02-09T05:14:17.046Z,7.66
2019-02-09T05:15:17.247Z,7.66
2019-02-09T05:16:17.462Z,7.63
2019-02-09T05:17:17.558Z,7.60
2019-02-09T05:18:17.757Z,7.63
2019-02-09T05:19:17.858Z,7.58
2019-02-09T05:20:18.068Z,7.60
2019-02-09T05:21:18.166Z,7.53
2019-02-09T05:22:18.366Z,7.43
2019-02-09T05:23:18.492Z,7.43
2019-02-09T05:24:18.685Z,7.50
2019-02-09T05:25:18.786Z,7.45
2019-02-09T05:26:18.995Z,7.47
2019-02-09T05:27:19.201Z,7.35
2019-02-09T05:28:19.290Z,7.36
2019-02-09T05:29:19.554Z,7.33
2019-02-09T05:30:19.635Z,7.39
2019-02-09T05:31:23.116Z,7.29
2019-02-09T05:32:19.951Z,7.24
2019-02-09T05:33:20.076Z,7.43
2019-02-09T05:34:20.264Z,7.32
2019-02-09T05:35:20.484Z,7.39
2019-02-09T05:36:20.614Z,7.40
2019-02-09T05:37:20.784Z,7.42
2019-02-09T05:38:20.919Z,7.35
2019-02-09T05:39:21.134Z,7.40
2019-02-09T05:40:21.226Z,7.31
2019-02-09T05:41:21.403Z,7.29
2019-02-09T05:42:21.504Z,7.25
2019-02-09T05:43:21.700Z,7.18
2019-02-09T05:44:21.889Z,7.24
2019-02-09T05:45:21.998Z,7.33
2019-02-09T05:46:22.137Z,7.29
2019-02-09T05:47:22.344Z,7.33
2019-02-09T05:48:22.511Z,7.31
2019-02-09T05:49:22.626Z,7.24
2019-02-09T05:50:22.806Z,7.36
2019-02-09T05:51:22.954Z,7.24
2019-02-09T05:52:23.111Z,7.36
2019-02-09T05:53:23.279Z,7.39
2019-02-09T05:54:23.414Z,7.45
2019-02-09T05:55:23.569Z,7.35
2019-02-09T05:56:23.748Z,7.39
2019-02-09T05:57:23.871Z,7.29
2019-02-09T05:58:24.007Z,7.36
2019-02-09T05:59:24.240Z,7.38
2019-02-09T06:00:24.348Z,7.40
2019-02-09T06:01:31.805Z,7.48
2019-02-09T06:02:24.671Z,7.45
2019-02-09T06:03:24.827Z,7.43
2019-02-09T06:04:25.000Z,7.50
2019-02-09T06:05:25.103Z,7.58
2019-02-09T06:06:25.309Z,7.67
2019-02-09T06:07:25.424Z,7.75
2019-02-09T06:08:25.659Z,7.75
2019-02-09T06:09:25.795Z,7.67
2019-02-09T06:10:25.890Z,7.69
2019-02-09T06:11:26.111Z,7.72
2019-02-09T06:12:26.211Z,7.67
2019-02-09T06:13:26.377Z,7.67
2019-02-09T06:14:27.396Z,7.67
2019-02-09T06:15:26.794Z,7.58
2019-02-09T06:16:26.949Z,7.70
2019-02-09T06:17:27.914Z,7.75
2019-02-09T06:18:27.365Z,7.67
2019-02-09T06:19:27.406Z,7.61
2019-02-09T06:20:27.597Z,7.73
2019-02-09T06:21:27.706Z,7.69
2019-02-09T06:22:27.936Z,7.69
2019-02-09T06:23:28.108Z,7.69
2019-02-09T06:24:28.260Z,7.61
2019-02-09T06:25:28.494Z,7.60
2019-02-09T06:26:28.603Z,7.69
2019-02-09T06:27:28.726Z,7.54
2019-02-09T06:28:28.904Z,7.51
2019-02-09T06:29:29.064Z,7.53
2019-02-09T06:30:29.190Z,7.57
2019-02-09T06:31:29.392Z,7.61
2019-02-09T06:32:29.577Z,7.66
2019-02-09T06:33:29.709Z,7.67
2019-02-09T06:34:29.863Z,7.76
2019-02-09T06:35:30.005Z,7.77
2019-02-09T06:36:30.131Z,7.83
2019-02-09T06:37:30.309Z,7.79
2019-02-09T06:38:30.491Z,7.87
2019-02-09T06:39:30.651Z,7.76
2019-02-09T06:40:30.815Z,7.69
2019-02-09T06:41:30.943Z,7.72
2019-02-09T06:42:31.203Z,7.67
2019-02-09T06:43:31.313Z,7.70
2019-02-09T06:44:31.506Z,7.77
2019-02-09T06:45:31.642Z,7.70
2019-02-09T06:46:31.738Z,7.73
2019-02-09T06:47:32.000Z,7.77
2019-02-09T06:48:32.161Z,7.94
2019-02-09T06:49:32.333Z,7.80
2019-02-09T06:50:32.382Z,7.88
2019-02-09T06:51:32.542Z,7.85
2019-02-09T06:52:32.742Z,7.83
2019-02-09T06:53:32.905Z,7.83
2019-02-09T06:54:33.027Z,7.82
2019-02-09T06:55:33.268Z,7.82
2019-02-09T06:56:33.365Z,7.67
2019-02-09T06:57:33.535Z,7.67
2019-02-09T06:58:33.687Z,7.82
2019-02-09T06:59:33.818Z,7.75
2019-02-09T07:00:33.983Z,7.76
2019-02-09T07:01:34.133Z,7.88
2019-02-09T07:02:34.422Z,7.82
2019-02-09T07:03:34.602Z,7.87
2019-02-09T07:04:34.747Z,7.79
2019-02-09T07:05:34.789Z,7.80
2019-02-09T07:06:34.922Z,7.73
2019-02-09T07:07:35.072Z,7.73
2019-02-09T07:08:35.250Z,7.76
2019-02-09T07:09:35.348Z,7.80
2019-02-09T07:10:35.523Z,7.85
2019-02-09T07:11:35.780Z,7.79
2019-02-09T07:12:35.915Z,7.80
2019-02-09T07:13:36.042Z,7.83
2019-02-09T07:14:36.210Z,7.88
2019-02-09T07:15:36.343Z,7.80
2019-02-09T07:16:36.498Z,7.79
2019-02-09T07:17:36.655Z,7.87
2019-02-09T07:18:36.857Z,7.90
2019-02-09T07:19:36.967Z,7.94
2019-02-09T07:20:37.099Z,7.94
2019-02-09T07:21:37.349Z,7.98
2019-02-09T07:22:37.445Z,7.91
2019-02-09T07:23:37.616Z,7.98
2019-02-09T07:24:38.270Z,7.98
2019-02-09T07:25:37.994Z,7.94
2019-02-09T07:26:38.646Z,7.93
2019-02-09T07:27:38.400Z,7.97
2019-02-09T07:28:38.524Z,7.93
2019-02-09T07:29:38.936Z,7.87
2019-02-09T07:30:38.874Z,7.97
2019-02-09T07:31:39.103Z,7.90
2019-02-09T07:32:39.199Z,7.88
2019-02-09T07:33:39.364Z,7.91
2019-02-09T07:34:39.467Z,7.87
2019-02-09T07:35:39.661Z,8.06
2019-02-09T07:36:39.812Z,8.18
2019-02-09T07:37:40.013Z,8.27
2019-02-09T07:38:40.081Z,8.44
2019-02-09T07:39:40.229Z,8.33
2019-02-09T07:40:40.500Z,8.20
2019-02-09T07:41:40.617Z,8.31
2019-02-09T07:42:40.729Z,8.30
2019-02-09T07:43:40.937Z,8.20
2019-02-09T07:44:40.985Z,8.27
2019-02-09T07:45:41.227Z,8.28
2019-02-09T07:46:41.482Z,8.31
2019-02-09T07:47:41.503Z,8.24
2019-02-09T07:48:41.687Z,8.26
2019-02-09T07:49:41.907Z,8.41
2019-02-09T07:50:42.119Z,8.44
2019-02-09T07:51:42.236Z,8.53
2019-02-09T07:52:42.478Z,8.55
2019-02-09T07:53:42.590Z,8.49
2019-02-09T07:54:42.736Z,8.46
2019-02-09T07:55:42.910Z,8.52
2019-02-09T07:56:43.073Z,8.46
2019-02-09T07:57:43.216Z,8.53
2019-02-09T07:58:43.360Z,8.48
2019-02-09T07:59:43.511Z,8.52
2019-02-09T08:00:43.679Z,8.58
2019-02-09T08:01:43.828Z,8.60
2019-02-09T08:02:43.925Z,8.60
2019-02-09T08:03:44.151Z,8.63
2019-02-09T08:04:44.324Z,8.70
2019-02-09T08:05:44.465Z,8.70
2019-02-09T08:06:44.658Z,8.63
2019-02-09T08:07:44.726Z,8.64
2019-02-09T08:08:44.979Z,8.58
2019-02-09T08:09:45.090Z,8.63
2019-02-09T08:10:45.225Z,8.69
2019-02-09T08:11:45.409Z,8.71
2019-02-09T08:12:45.554Z,8.87
2019-02-09T08:13:45.716Z,8.88
2019-02-09T08:14:45.876Z,8.84
2019-02-09T08:15:46.000Z,8.87
2019-02-09T08:16:46.202Z,8.79
2019-02-09T08:17:46.352Z,8.84
2019-02-09T08:18:46.513Z,8.78
2019-02-09T08:19:46.723Z,8.64
2019-02-09T08:20:46.890Z,8.53
2019-02-09T08:21:47.043Z,8.61
2019-02-09T08:22:47.206Z,8.66
2019-02-09T08:23:47.326Z,8.60
2019-02-09T08:24:47.486Z,8.63
2019-02-09T08:25:47.663Z,8.64
2019-02-09T08:26:47.790Z,8.79
2019-02-09T08:27:47.938Z,8.84
2019-02-09T08:28:48.133Z,8.94
2019-02-09T08:29:48.254Z,8.99
2019-02-09T08:30:48.443Z,8.99
2019-02-09T08:31:48.643Z,8.84
2019-02-09T08:32:48.789Z,8.94
2019-02-09T08:33:48.960Z,8.94
2019-02-09T08:34:49.099Z,9.40
2019-02-09T08:35:49.239Z,9.74
2019-02-09T08:36:49.398Z,9.69
2019-02-09T08:37:49.572Z,9.66
2019-02-09T08:38:49.781Z,9.61
2019-02-09T08:39:49.861Z,9.44
2019-02-09T08:40:50.010Z,9.41
2019-02-09T08:41:50.258Z,9.26
2019-02-09T08:42:50.428Z,9.14
2019-02-09T08:43:50.555Z,9.03
2019-02-09T08:44:50.683Z,9.16
2019-02-09T08:45:50.876Z,9.04
2019-02-09T08:46:51.003Z,9.00
2019-02-09T08:47:51.177Z,8.89
2019-02-09T08:48:51.331Z,9.00
2019-02-09T08:49:51.519Z,8.95
2019-02-09T08:50:51.671Z,8.92
2019-02-09T08:51:51.832Z,9.18
2019-02-09T08:52:51.975Z,9.04
2019-02-09T08:53:52.097Z,9.08
2019-02-09T08:54:52.287Z,9.14
2019-02-09T08:55:52.462Z,9.26
2019-02-09T08:56:52.675Z,9.39
2019-02-09T08:57:52.814Z,9.56
2019-02-09T08:58:52.972Z,9.58
2019-02-09T08:59:53.130Z,9.73
2019-02-09T09:00:53.302Z,9.74
2019-02-09T09:01:53.405Z,9.79
2019-02-09T09:02:53.604Z,9.77
2019-02-09T09:03:53.708Z,9.82
2019-02-09T09:04:53.896Z,9.76
2019-02-09T09:05:54.117Z,9.69
2019-02-09T09:06:54.292Z,9.68
2019-02-09T09:07:54.375Z,9.59
2019-02-09T09:08:54.555Z,9.55
2019-02-09T09:09:54.745Z,9.47
2019-02-09T09:10:54.909Z,9.29
2019-02-09T09:11:55.068Z,9.25
2019-02-09T09:12:55.191Z,9.13
2019-02-09T09:13:55.412Z,9.18
2019-02-09T09:14:55.514Z,9.23
2019-02-09T09:15:55.735Z,9.29
2019-02-09T09:16:55.868Z,9.47
2019-02-09T09:17:56.084Z,9.61
2019-02-09T09:18:56.254Z,9.77
2019-02-09T09:19:56.348Z,9.79
2019-02-09T09:20:56.507Z,9.77
2019-02-09T09:21:56.675Z,9.72
2019-02-09T09:22:56.787Z,9.79
2019-02-09T09:23:56.973Z,9.87
2019-02-09T09:24:57.091Z,10.26
2019-02-09T09:25:57.261Z,11.11
2019-02-09T09:26:57.470Z,11.22
2019-02-09T09:27:57.582Z,10.89
2019-02-09T09:28:57.809Z,10.79
2019-02-09T09:29:57.915Z,11.73
2019-02-09T09:30:58.125Z,12.62
2019-02-09T09:31:58.223Z,13.74
2019-02-09T09:32:58.418Z,13.90
2019-02-09T09:33:58.503Z,13.65
2019-02-09T09:34:58.727Z,13.56
2019-02-09T09:35:58.862Z,14.07
2019-02-09T09:36:59.079Z,14.43
2019-02-09T09:37:59.244Z,14.05
2019-02-09T09:38:59.328Z,13.04
2019-02-09T09:39:59.528Z,12.65
2019-02-09T09:40:59.683Z,12.36
2019-02-09T09:41:59.925Z,12.43
2019-02-09T09:43:00.074Z,13.46
2019-02-09T09:44:00.197Z,13.54
2019-02-09T09:45:00.401Z,13.77
2019-02-09T09:46:00.528Z,13.83
2019-02-09T09:47:00.664Z,14.20
2019-02-09T09:48:00.902Z,14.03
2019-02-09T09:49:01.111Z,14.11
2019-02-09T09:50:01.151Z,13.85
2019-02-09T09:51:01.363Z,14.05
2019-02-09T09:52:01.529Z,13.81
2019-02-09T09:53:02.555Z,13.53
2019-02-09T09:54:01.882Z,13.13
2019-02-09T09:55:02.011Z,12.62
2019-02-09T09:56:02.210Z,12.85
2019-02-09T09:57:02.355Z,12.90
2019-02-09T09:58:02.491Z,13.46
2019-02-09T09:59:02.678Z,13.49
2019-02-09T10:00:02.887Z,13.22
2019-02-09T10:01:03.046Z,13.49
2019-02-09T10:02:03.206Z,13.11
2019-02-09T10:03:03.927Z,12.47
2019-02-09T10:04:03.492Z,12.04
2019-02-09T10:05:03.602Z,11.75
2019-02-09T10:06:03.829Z,11.36
2019-02-09T10:07:03.981Z,11.15
2019-02-09T10:08:04.122Z,11.02
2019-02-09T10:09:04.330Z,11.60
2019-02-09T10:10:04.430Z,11.66
2019-02-09T10:11:08.317Z,11.57
2019-02-09T10:12:04.789Z,11.35
2019-02-09T10:13:04.982Z,11.25
2019-02-09T10:14:08.974Z,11.14
2019-02-09T10:15:05.294Z,11.18
2019-02-09T10:16:05.512Z,11.22
2019-02-09T10:17:05.672Z,11.04
2019-02-09T10:18:05.813Z,11.40
2019-02-09T10:19:05.970Z,11.27
2019-02-09T10:20:06.149Z,11.37
2019-02-09T10:21:06.243Z,11.25
2019-02-09T10:22:06.460Z,11.18
2019-02-09T10:23:06.687Z,11.05
2019-02-09T10:24:06.779Z,11.12
2019-02-09T10:25:06.957Z,11.29
2019-02-09T10:26:07.139Z,11.22
2019-02-09T10:27:07.259Z,11.18
2019-02-09T10:28:07.405Z,11.05
2019-02-09T10:29:07.562Z,11.23
2019-02-09T10:30:07.804Z,11.57
2019-02-09T10:31:07.902Z,12.22
2019-02-09T10:32:08.063Z,12.64
2019-02-09T10:33:08.278Z,12.73
2019-02-09T10:34:08.414Z,12.65
2019-02-09T10:35:08.586Z,12.39
2019-02-09T10:36:08.713Z,12.21
2019-02-09T10:37:08.924Z,11.86
2019-02-09T10:38:09.032Z,11.55
2019-02-09T10:39:09.229Z,12.17
2019-02-09T10:40:09.382Z,12.65
2019-02-09T10:41:09.475Z,13.46
2019-02-09T10:42:09.710Z,13.62
2019-02-09T10:43:09.905Z,14.00
2019-02-09T10:44:09.996Z,14.12
2019-02-09T10:45:10.190Z,13.67
2019-02-09T10:46:10.338Z,13.27
2019-02-09T10:47:10.541Z,13.56
2019-02-09T10:48:10.636Z,13.70
2019-02-09T10:49:10.814Z,13.31
2019-02-09T10:50:11.009Z,13.49
2019-02-09T10:51:11.162Z,13.52
2019-02-09T10:52:11.300Z,13.52
2019-02-09T10:53:12.451Z,13.25
2019-02-09T10:54:11.617Z,13.15
2019-02-09T10:55:11.746Z,12.85
2019-02-09T10:56:11.978Z,12.31
2019-02-09T10:57:12.057Z,12.32
2019-02-09T10:58:12.248Z,12.58
2019-02-09T10:59:12.348Z,12.39
2019-02-09T11:00:12.648Z,12.39
2019-02-09T11:01:12.763Z,12.35
2019-02-09T11:02:12.866Z,12.45
2019-02-09T11:03:13.081Z,12.39
2019-02-09T11:04:13.237Z,12.15
2019-02-09T11:05:13.365Z,12.25
2019-02-09T11:06:13.591Z,12.67
2019-02-09T11:07:13.788Z,13.11
2019-02-09T11:08:13.946Z,13.68
2019-02-09T11:09:14.033Z,14.04
2019-02-09T11:10:14.223Z,14.28
2019-02-09T11:11:14.457Z,14.85
2019-02-09T11:12:14.671Z,15.37
2019-02-09T11:13:14.888Z,16.54
2019-02-09T11:14:15.004Z,16.97
2019-02-09T11:15:15.197Z,17.54
2019-02-09T11:16:15.305Z,17.85
2019-02-09T11:17:15.507Z,18.53
2019-02-09T11:18:15.976Z,18.58
2019-02-09T11:19:15.878Z,18.53
2019-02-09T11:20:15.996Z,17.97
2019-02-09T11:21:16.182Z,18.15
2019-02-09T11:22:16.344Z,18.65
2019-02-09T11:23:16.524Z,18.58
2019-02-09T11:24:16.671Z,18.68
2019-02-09T11:25:16.867Z,18.84
2019-02-09T11:26:17.062Z,17.52
2019-02-09T11:27:17.191Z,15.94
2019-02-09T11:28:17.394Z,15.40
2019-02-09T11:29:17.505Z,15.37
2019-02-09T11:30:17.936Z,15.70
2019-02-09T11:31:17.879Z,14.84
2019-02-09T11:32:18.016Z,14.79
2019-02-09T11:33:18.159Z,14.63
2019-02-09T11:34:18.362Z,13.78
2019-02-09T11:35:18.541Z,13.42
2019-02-09T11:36:18.646Z,13.13
2019-02-09T11:37:18.865Z,13.35
2019-02-09T11:38:19.035Z,13.93
2019-02-09T11:39:19.167Z,13.89
2019-02-09T11:40:19.304Z,13.79
2019-02-09T11:41:20.034Z,13.37
2019-02-09T11:42:19.720Z,13.83
2019-02-09T11:43:20.075Z,14.12
2019-02-09T11:44:20.034Z,13.95
2019-02-09T11:45:20.233Z,13.83
2019-02-09T11:46:20.361Z,13.68
2019-02-09T11:47:20.551Z,14.11
2019-02-09T11:48:20.761Z,14.37
2019-02-09T11:49:20.900Z,13.49
2019-02-09T11:50:21.085Z,12.94
2019-02-09T11:51:21.248Z,13.11
2019-02-09T11:52:22.287Z,13.71
2019-02-09T11:53:21.578Z,13.68
2019-02-09T11:54:22.291Z,13.54
2019-02-09T11:55:21.923Z,13.60
2019-02-09T11:56:22.048Z,13.46
2019-02-09T11:57:22.248Z,13.15
2019-02-09T11:58:22.373Z,13.19
2019-02-09T11:59:22.512Z,13.15
2019-02-09T12:00:22.692Z,12.73
2019-02-09T12:01:22.939Z,12.39
2019-02-09T12:02:23.142Z,12.32
2019-02-09T12:03:23.263Z,12.17
2019-02-09T12:04:23.417Z,12.06
2019-02-09T12:05:23.589Z,11.99
2019-02-09T12:06:23.785Z,11.99
2019-02-09T12:07:24.066Z,11.91
2019-02-09T12:08:24.075Z,11.90
2019-02-09T12:09:24.324Z,11.77
2019-02-09T12:10:24.427Z,12.06
2019-02-09T12:11:24.558Z,12.07
2019-02-09T12:12:24.731Z,12.28
2019-02-09T12:13:24.896Z,12.27
2019-02-09T12:14:25.088Z,12.10
2019-02-09T12:15:25.184Z,11.97
2019-02-09T12:16:25.418Z,11.99
2019-02-09T12:17:25.571Z,11.78
2019-02-09T12:18:25.743Z,11.73
2019-02-09T12:19:25.942Z,11.69
2019-02-09T12:20:26.100Z,11.54
2019-02-09T12:21:26.237Z,11.62
2019-02-09T12:22:26.357Z,11.57
2019-02-09T12:23:26.499Z,11.52
2019-02-09T12:24:26.739Z,11.63
2019-02-09T12:25:26.848Z,11.51
2019-02-09T12:26:27.020Z,11.45
2019-02-09T12:27:27.182Z,11.37
2019-02-09T12:28:27.302Z,11.50
2019-02-09T12:29:34.461Z,11.48
2019-02-09T12:30:28.460Z,11.50
2019-02-09T12:31:27.773Z,11.55
2019-02-09T12:32:27.865Z,11.40
2019-02-09T12:33:28.032Z,11.23
2019-02-09T12:34:28.261Z,11.23
2019-02-09T12:35:28.366Z,11.25
2019-02-09T12:36:28.591Z,11.29
2019-02-09T12:37:30.424Z,11.29
2019-02-09T12:38:28.969Z,11.50
2019-02-09T12:39:29.025Z,11.59
2019-02-09T12:40:29.154Z,11.72
2019-02-09T12:41:29.398Z,11.73
2019-02-09T12:42:29.486Z,11.66
2019-02-09T12:43:29.717Z,11.78
2019-02-09T12:44:29.813Z,11.70
2019-02-09T12:45:30.000Z,11.62
2019-02-09T12:46:30.209Z,11.60
2019-02-09T12:47:30.325Z,11.62
2019-02-09T12:48:30.479Z,11.60
2019-02-09T12:49:30.715Z,11.55
2019-02-09T12:50:30.917Z,11.60
2019-02-09T12:51:30.985Z,11.52
2019-02-09T12:52:31.145Z,11.48
2019-02-09T12:53:31.260Z,11.51
2019-02-09T12:54:31.546Z,11.52
2019-02-09T12:55:31.665Z,11.69
2019-02-09T12:56:31.886Z,11.78
2019-02-09T12:57:32.034Z,11.78
2019-02-09T12:58:32.155Z,11.69
2019-02-09T12:59:32.308Z,11.72
2019-02-09T13:00:32.521Z,11.63
2019-02-09T13:01:33.508Z,11.63
2019-02-09T13:02:32.777Z,11.62
2019-02-09T13:03:32.901Z,11.43
2019-02-09T13:04:35.075Z,11.15
2019-02-09T13:05:33.323Z,10.93
2019-02-09T13:06:33.516Z,11.04
2019-02-09T13:07:33.657Z,11.02
2019-02-09T13:08:33.777Z,11.02
2019-02-09T13:09:33.922Z,10.96
2019-02-09T13:10:34.147Z,10.90
2019-02-09T13:11:34.312Z,10.84
2019-02-09T13:12:34.473Z,10.71
2019-02-09T13:13:34.603Z,10.84
2019-02-09T13:14:34.861Z,10.78
2019-02-09T13:15:35.010Z,10.89
2019-02-09T13:16:35.087Z,10.93
2019-02-09T13:17:35.263Z,10.99
2019-02-09T13:18:35.344Z,10.99
2019-02-09T13:19:35.787Z,10.93
2019-02-09T13:20:35.787Z,11.04
2019-02-09T13:21:35.884Z,10.90
2019-02-09T13:22:36.300Z,11.02
2019-02-09T13:23:36.343Z,11.15
2019-02-09T13:24:36.414Z,11.05
2019-02-09T13:25:36.701Z,11.08
2019-02-09T13:26:36.940Z,11.15
2019-02-09T13:27:37.066Z,11.05
2019-02-09T13:28:37.137Z,11.12
2019-02-09T13:29:37.565Z,11.17
2019-02-09T13:30:37.555Z,11.29
2019-02-09T13:31:37.827Z,11.55
2019-02-09T13:32:37.999Z,11.59
2019-02-09T13:33:39.143Z,11.48
2019-02-09T13:34:38.169Z,11.55
2019-02-09T13:35:38.395Z,11.47
2019-02-09T13:36:38.558Z,11.57
2019-02-09T13:37:38.775Z,11.57
2019-02-09T13:38:38.931Z,11.55
2019-02-09T13:39:39.148Z,11.47
2019-02-09T13:40:39.577Z,11.36
2019-02-09T13:41:39.539Z,11.32
2019-02-09T13:42:39.704Z,11.23
2019-02-09T13:43:39.815Z,11.08
2019-02-09T13:44:39.931Z,11.10
2019-02-09T13:45:40.139Z,11.15
2019-02-09T13:46:40.522Z,11.17
2019-02-09T13:47:40.620Z,11.22
2019-02-09T13:48:40.731Z,11.25
2019-02-09T13:49:40.880Z,11.23
2019-02-09T13:50:41.153Z,11.40
2019-02-09T13:51:41.203Z,11.54
2019-02-09T13:52:41.810Z,11.47
2019-02-09T13:53:41.724Z,11.57
2019-02-09T13:54:41.775Z,11.48
2019-02-09T13:55:41.980Z,11.40
2019-02-09T13:56:42.040Z,11.40
2019-02-09T13:57:42.153Z,11.32
2019-02-09T13:58:42.324Z,11.45
2019-02-09T13:59:42.580Z,11.88
2019-02-09T14:00:42.704Z,12.04
2019-02-09T14:01:42.873Z,11.80
2019-02-09T14:02:43.415Z,11.69
2019-02-09T14:03:46.976Z,11.77
2019-02-09T14:04:44.483Z,11.62
2019-02-09T14:05:43.851Z,11.57
2019-02-09T14:06:43.887Z,11.55
2019-02-09T14:07:43.960Z,11.59
2019-02-09T14:08:44.333Z,11.57
2019-02-09T14:09:44.642Z,11.60
2019-02-09T14:10:44.368Z,11.54
2019-02-09T14:11:44.795Z,11.57
2019-02-09T14:12:44.619Z,11.57
2019-02-09T14:13:44.852Z,11.66
2019-02-09T14:14:45.108Z,11.70
2019-02-09T14:15:45.335Z,11.68
2019-02-09T14:16:45.340Z,11.62
2019-02-09T14:17:45.479Z,11.59
2019-02-09T14:18:45.630Z,11.63
2019-02-09T14:19:46.681Z,11.68
2019-02-09T14:20:45.979Z,11.68
2019-02-09T14:21:46.269Z,11.77
2019-02-09T14:22:46.395Z,11.52
2019-02-09T14:23:46.501Z,11.37
2019-02-09T14:24:46.599Z,11.29
2019-02-09T14:25:46.873Z,11.17
2019-02-09T14:26:47.009Z,11.17
2019-02-09T14:27:47.162Z,11.15
2019-02-09T14:28:47.334Z,11.17
2019-02-09T14:29:47.504Z,11.15
2019-02-09T14:30:47.779Z,11.30
2019-02-09T14:31:47.783Z,11.50
2019-02-09T14:32:48.010Z,11.55
2019-02-09T14:33:54.816Z,11.65
2019-02-09T14:34:48.271Z,11.52
2019-02-09T14:35:48.492Z,11.51
2019-02-09T14:36:48.627Z,11.45
2019-02-09T14:37:48.829Z,11.44
2019-02-09T14:38:48.941Z,11.22
2019-02-09T14:39:49.076Z,11.19
2019-02-09T14:40:49.290Z,11.25
2019-02-09T14:41:49.382Z,11.17
2019-02-09T14:42:49.598Z,11.30
2019-02-09T14:43:49.685Z,11.41
2019-02-09T14:44:49.896Z,11.50
2019-02-09T14:45:50.024Z,11.59
2019-02-09T14:46:50.256Z,11.65
2019-02-09T14:47:50.362Z,11.70
2019-02-09T14:48:50.549Z,12.04
2019-02-09T14:49:50.739Z,12.40
2019-02-09T14:50:50.884Z,12.27
2019-02-09T14:51:51.063Z,12.13
2019-02-09T14:52:51.241Z,12.02
2019-02-09T14:53:51.346Z,12.06
2019-02-09T14:54:51.565Z,11.95
2019-02-09T14:55:51.747Z,11.73
2019-02-09T14:56:51.887Z,11.60
2019-02-09T14:57:52.070Z,11.47
2019-02-09T14:58:52.241Z,11.52
2019-02-09T14:59:52.320Z,11.47
2019-02-09T15:00:52.575Z,11.35
2019-02-09T15:01:52.717Z,11.48
2019-02-09T15:02:54.064Z,11.41
2019-02-09T15:03:53.026Z,11.43
2019-02-09T15:04:53.124Z,11.57
2019-02-09T15:05:53.332Z,11.60
2019-02-09T15:06:53.620Z,11.55
2019-02-09T15:07:53.661Z,11.45
2019-02-09T15:08:53.880Z,11.40
2019-02-09T15:09:54.027Z,11.27
2019-02-09T15:10:54.137Z,11.35
2019-02-09T15:11:54.325Z,11.25
2019-02-09T15:12:54.449Z,11.29
2019-02-09T15:13:54.629Z,11.25
2019-02-09T15:14:54.815Z,11.18
2019-02-09T15:15:54.931Z,11.17
2019-02-09T15:16:55.110Z,11.18
2019-02-09T15:17:55.273Z,11.19
2019-02-09T15:18:55.414Z,11.23
2019-02-09T15:19:55.574Z,11.23
2019-02-09T15:20:55.719Z,11.14
2019-02-09T15:21:55.892Z,11.25
2019-02-09T15:22:56.031Z,11.22
2019-02-09T15:23:56.206Z,11.22
2019-02-09T15:24:56.351Z,11.17
2019-02-09T15:25:56.544Z,11.10
2019-02-09T15:26:56.691Z,11.04
2019-02-09T15:27:56.846Z,11.11
2019-02-09T15:28:57.011Z,11.04
2019-02-09T15:29:57.178Z,10.96
2019-02-09T15:30:57.952Z,10.92
2019-02-09T15:31:57.453Z,10.92
2019-02-09T15:32:57.603Z,10.92
2019-02-09T15:33:57.775Z,10.82
2019-02-09T15:34:57.938Z,10.72
2019-02-09T15:35:58.747Z,10.81
2019-02-09T15:36:58.265Z,10.71
2019-02-09T15:37:58.407Z,10.60
2019-02-09T15:38:58.639Z,10.63
2019-02-09T15:39:58.783Z,10.61
2019-02-09T15:40:58.913Z,10.60
2019-02-09T15:41:59.096Z,10.61
2019-02-09T15:42:59.300Z,10.59
2019-02-09T15:43:59.380Z,10.53
2019-02-09T15:44:59.567Z,10.57
2019-02-09T15:45:59.713Z,10.49
2019-02-09T15:46:59.895Z,10.46
2019-02-09T15:48:00.025Z,10.40
2019-02-09T15:49:00.201Z,10.30
2019-02-09T15:50:00.396Z,10.34
2019-02-09T15:51:00.508Z,10.37
2019-02-09T15:52:00.865Z,10.42
2019-02-09T15:53:00.951Z,10.40
2019-02-09T15:54:01.029Z,10.38
2019-02-09T15:55:01.250Z,10.40
2019-02-09T15:56:01.407Z,10.38
2019-02-09T15:57:01.569Z,10.34
2019-02-09T15:58:01.688Z,10.30
2019-02-09T15:59:01.845Z,10.37
2019-02-09T16:00:02.029Z,10.35
2019-02-09T16:01:02.211Z,10.31
2019-02-09T16:02:02.325Z,10.41
2019-02-09T16:03:02.523Z,10.28
2019-02-09T16:04:02.729Z,10.33
2019-02-09T16:05:02.781Z,10.31
2019-02-09T16:06:03.002Z,10.30
2019-02-09T16:07:03.191Z,10.23
2019-02-09T16:08:03.333Z,10.33
2019-02-09T16:09:03.429Z,10.37
2019-02-09T16:10:03.664Z,10.31
2019-02-09T16:11:03.913Z,10.25
2019-02-09T16:12:04.013Z,10.28
2019-02-09T16:13:04.111Z,10.22
2019-02-09T16:14:04.357Z,10.16
2019-02-09T16:15:04.465Z,10.15
2019-02-09T16:16:04.621Z,10.16
2019-02-09T16:17:04.775Z,10.13
2019-02-09T16:18:04.987Z,10.16
2019-02-09T16:19:05.106Z,10.25
2019-02-09T16:20:05.263Z,10.17
2019-02-09T16:21:05.387Z,10.13
2019-02-09T16:22:05.524Z,10.13
2019-02-09T16:23:05.760Z,10.16
2019-02-09T16:24:05.905Z,10.26
2019-02-09T16:25:06.108Z,10.22
2019-02-09T16:26:06.284Z,10.25
2019-02-09T16:27:06.456Z,10.28
2019-02-09T16:28:06.596Z,10.25
2019-02-09T16:29:06.758Z,10.19
2019-02-09T16:30:06.941Z,10.30
2019-02-09T16:31:07.015Z,10.33
2019-02-09T16:32:07.246Z,10.16
2019-02-09T16:33:07.387Z,10.04
2019-02-09T16:34:07.559Z,10.07
2019-02-09T16:35:07.691Z,9.98
2019-02-09T16:36:08.474Z,10.12
2019-02-09T16:37:08.025Z,10.12
2019-02-09T16:38:08.126Z,10.12
2019-02-09T16:39:08.303Z,10.12
2019-02-09T16:40:08.458Z,10.12
2019-02-09T16:41:08.716Z,10.13
2019-02-09T16:42:08.841Z,10.10
2019-02-09T16:43:09.019Z,10.16
2019-02-09T16:44:09.179Z,10.07
2019-02-09T16:45:09.287Z,10.10
2019-02-09T16:46:09.488Z,10.09
2019-02-09T16:47:09.638Z,9.98
2019-02-09T16:48:09.749Z,10.05
2019-02-09T16:49:09.982Z,10.05
2019-02-09T16:50:10.222Z,10.01
2019-02-09T16:51:10.256Z,10.01
2019-02-09T16:52:10.465Z,9.95
2019-02-09T16:53:10.677Z,9.92
2019-02-09T16:54:10.748Z,9.94
2019-02-09T16:55:10.969Z,9.95
2019-02-09T16:56:11.137Z,9.95
2019-02-09T16:57:11.342Z,9.91
2019-02-09T16:58:11.423Z,9.98
2019-02-09T16:59:11.614Z,9.95
2019-02-09T17:00:11.834Z,9.94
2019-02-09T17:01:11.993Z,9.97
2019-02-09T17:02:12.147Z,9.97
2019-02-09T17:03:12.274Z,9.91
2019-02-09T17:04:12.473Z,9.97
2019-02-09T17:05:12.613Z,9.94
2019-02-09T17:06:12.737Z,9.84
2019-02-09T17:07:12.937Z,9.77